Time,TemperatureF,DewpointF,PressureIn,WindDirection,WindDirectionDegrees,WindSpeedMPH,WindSpeedGustMPH,Humidity,HourlyPrecipIn,Conditions,Clouds,dailyrainin,SolarRadiationWatts/m^2,SoftwareType,DateUTC
2013-04-19 00:01:00,59.0,22.0,-100.00,WSW,241,3.0,3.0,24,0.00,,,0.00,1.000000,,2013-04-19 07:01:00,
2013-04-19 00:12:00,59.0,22.0,-100.00,WSW,241,3.0,3.0,24,0.00,,,0.00,1.000000,,2013-04-19 07:12:00,
2013-04-19 00:42:00,57.0,24.0,-100.00,NW,321,1.0,5.0,28,0.00,,,0.00,1.000000,,2013-04-19 07:42:00,
2013-04-19 00:52:00,57.0,24.0,-100.00,NW,321,1.0,5.0,28,0.00,,,0.00,1.000000,,2013-04-19 07:52:00,
2013-04-19 01:02:00,57.0,24.0,-100.00,NW,321,1.0,5.0,28,0.00,,,0.00,1.000000,,2013-04-19 08:02:00,
2013-04-19 01:12:00,57.0,24.0,-100.00,NW,321,1.0,5.0,28,0.00,,,0.00,1.000000,,2013-04-19 08:12:00,
2013-04-19 01:42:00,52.0,31.0,-100.00,WNW,300,3.0,6.0,44,0.00,,,0.00,1.000000,,2013-04-19 08:42:00,
2013-04-19 02:43:00,63.0,13.0,-100.00,NNW,344,0.0,7.0,14,0.00,,,-99.99,1.000000,,2013-04-19 09:43:00,
2013-04-19 02:52:00,63.0,13.0,-100.00,NNW,344,0.0,7.0,14,0.00,,,-99.99,1.000000,,2013-04-19 09:52:00,
2013-04-19 03:02:00,63.0,13.0,-100.00,NNW,344,0.0,7.0,14,0.00,,,-99.99,1.000000,,2013-04-19 10:02:00,
2013-04-19 03:13:00,63.0,13.0,-100.00,NNW,344,0.0,7.0,14,0.00,,,-99.99,1.000000,,2013-04-19 10:13:00,
2013-04-19 03:42:00,53.0,26.0,-100.00,SW,235,0.0,2.0,35,0.00,,,0.00,1.000000,,2013-04-19 10:42:00,
2013-04-19 03:52:00,53.0,26.0,-100.00,SW,235,0.0,2.0,35,0.00,,,0.00,1.000000,,2013-04-19 10:52:00,
2013-04-19 04:02:00,53.0,26.0,-100.00,SW,235,0.0,2.0,35,0.00,,,0.00,1.000000,,2013-04-19 11:02:00,
2013-04-19 04:11:00,53.0,26.0,-100.00,SW,235,0.0,2.0,35,0.00,,,0.00,1.000000,,2013-04-19 11:11:00,
2013-04-19 04:43:00,52.0,21.0,-100.00,SW,234,2.0,4.0,29,0.00,,,0.00,1.000000,,2013-04-19 11:43:00,
2013-04-19 04:52:00,52.0,21.0,-100.00,SW,234,2.0,4.0,29,0.00,,,0.00,1.000000,,2013-04-19 11:52:00,
2013-04-19 05:02:00,52.0,21.0,-100.00,SW,234,2.0,4.0,29,0.00,,,0.00,1.000000,,2013-04-19 12:02:00,
2013-04-19 05:12:00,52.0,21.0,-100.00,SW,234,2.0,4.0,29,0.00,,,0.00,1.000000,,2013-04-19 12:12:00,
2013-04-19 05:42:00,53.0,21.0,-100.00,WNW,292,0.0,7.0,28,0.00,,,0.00,1.000000,,2013-04-19 12:42:00,
2013-04-19 05:52:00,53.0,21.0,-100.00,WNW,292,0.0,7.0,28,0.00,,,0.00,1.000000,,2013-04-19 12:52:00,
2013-04-19 06:01:00,53.0,21.0,-100.00,WNW,292,0.0,7.0,28,0.00,,,0.00,1.000000,,2013-04-19 13:01:00,
2013-04-19 06:11:00,53.0,21.0,-100.00,WNW,292,0.0,7.0,28,0.00,,,0.00,1.000000,,2013-04-19 13:11:00,
2013-04-19 06:42:00,56.0,18.0,-100.00,NE,36,4.0,6.0,22,0.00,,,0.00,3.000000,,2013-04-19 13:42:00,
2013-04-19 06:52:00,56.0,18.0,-100.00,NE,36,4.0,6.0,22,0.00,,,0.00,3.000000,,2013-04-19 13:52:00,
2013-04-19 07:01:00,56.0,18.0,-100.00,NE,36,4.0,6.0,22,0.00,,,0.00,3.000000,,2013-04-19 14:01:00,
2013-04-19 07:11:00,56.0,18.0,-100.00,NE,36,4.0,6.0,22,0.00,,,0.00,3.000000,,2013-04-19 14:11:00,
2013-04-19 07:43:00,57.0,24.0,-100.00,NNE,18,1.0,4.0,28,0.00,,,0.00,110.000000,,2013-04-19 14:43:00,
2013-04-19 07:52:00,57.0,24.0,-100.00,NNE,18,1.0,4.0,28,0.00,,,0.00,110.000000,,2013-04-19 14:52:00,
2013-04-19 08:01:00,57.0,24.0,-100.00,NNE,18,1.0,4.0,28,0.00,,,0.00,110.000000,,2013-04-19 15:01:00,
2013-04-19 08:11:00,57.0,24.0,-100.00,NNE,18,1.0,4.0,28,0.00,,,0.00,110.000000,,2013-04-19 15:11:00,
2013-04-19 08:43:00,66.0,19.0,-100.00,NE,47,4.0,8.0,16,0.00,,,0.00,330.000000,,2013-04-19 15:43:00,
2013-04-19 08:52:00,66.0,19.0,-100.00,NE,47,4.0,8.0,16,0.00,,,0.00,330.000000,,2013-04-19 15:52:00,
2013-04-19 09:03:00,66.0,19.0,-100.00,NE,47,4.0,8.0,16,0.00,,,0.00,330.000000,,2013-04-19 16:03:00,
2013-04-19 09:12:00,66.0,19.0,-100.00,NE,47,4.0,8.0,16,0.00,,,0.00,330.000000,,2013-04-19 16:12:00,
2013-04-19 09:42:00,70.0,23.0,-100.00,NE,35,8.0,11.0,17,0.00,,,0.00,561.000000,,2013-04-19 16:42:00,
2013-04-19 09:52:00,70.0,23.0,-100.00,NE,35,8.0,11.0,17,0.00,,,0.00,561.000000,,2013-04-19 16:52:00,
2013-04-19 10:02:00,70.0,23.0,-100.00,NE,35,8.0,11.0,17,0.00,,,0.00,561.000000,,2013-04-19 17:02:00,
2013-04-19 10:11:00,70.0,23.0,-100.00,NE,35,8.0,11.0,17,0.00,,,0.00,561.000000,,2013-04-19 17:11:00,
2013-04-19 10:43:00,75.0,19.0,-100.00,NE,55,8.0,12.0,12,0.00,,,0.00,769.000000,,2013-04-19 17:43:00,
2013-04-19 10:52:00,75.0,19.0,-100.00,NE,55,8.0,12.0,12,0.00,,,0.00,769.000000,,2013-04-19 17:52:00,
2013-04-19 11:01:00,75.0,19.0,-100.00,NE,55,8.0,12.0,12,0.00,,,0.00,769.000000,,2013-04-19 18:01:00,
2013-04-19 11:13:00,75.0,19.0,-100.00,NE,55,8.0,12.0,12,0.00,,,0.00,769.000000,,2013-04-19 18:13:00,
2013-04-19 11:43:00,77.0,16.0,-100.00,NE,46,7.0,15.0,10,0.00,,,0.00,932.000000,,2013-04-19 18:43:00,
2013-04-19 11:52:00,77.0,16.0,-100.00,NE,46,7.0,15.0,10,0.00,,,0.00,932.000000,,2013-04-19 18:52:00,
2013-04-19 12:01:00,77.0,16.0,-100.00,NE,46,7.0,15.0,10,0.00,,,0.00,932.000000,,2013-04-19 19:01:00,
2013-04-19 12:11:00,77.0,16.0,-100.00,NE,46,7.0,15.0,10,0.00,,,0.00,932.000000,,2013-04-19 19:11:00,
2013-04-19 12:42:00,80.0,13.0,-100.00,ENE,57,6.0,13.0,8,0.00,,,0.00,1031.000000,,2013-04-19 19:42:00,
2013-04-19 12:52:00,80.0,13.0,-100.00,ENE,57,6.0,13.0,8,0.00,,,0.00,1031.000000,,2013-04-19 19:52:00,
2013-04-19 13:01:00,80.0,13.0,-100.00,ENE,57,6.0,13.0,8,0.00,,,0.00,1031.000000,,2013-04-19 20:01:00,
2013-04-19 13:11:00,80.0,13.0,-100.00,ENE,57,6.0,13.0,8,0.00,,,0.00,1031.000000,,2013-04-19 20:11:00,
2013-04-19 13:42:00,83.0,13.0,-100.00,NNW,334,6.0,10.0,7,0.00,,,0.00,1055.000000,,2013-04-19 20:42:00,
2013-04-19 13:52:00,83.0,13.0,-100.00,NNW,334,6.0,10.0,7,0.00,,,0.00,1055.000000,,2013-04-19 20:52:00,
2013-04-19 14:01:00,83.0,13.0,-100.00,NNW,334,6.0,10.0,7,0.00,,,0.00,1055.000000,,2013-04-19 21:01:00,
2013-04-19 14:11:00,83.0,13.0,-100.00,NNW,334,6.0,10.0,7,0.00,,,0.00,1055.000000,,2013-04-19 21:11:00,
2013-04-19 14:43:00,85.0,14.0,-100.00,NNE,12,6.0,11.0,7,0.00,,,0.00,1016.000000,,2013-04-19 21:43:00,
2013-04-19 14:52:00,85.0,14.0,-100.00,NNE,12,6.0,11.0,7,0.00,,,0.00,1016.000000,,2013-04-19 21:52:00,
2013-04-19 15:02:00,85.0,14.0,-100.00,NNE,12,6.0,11.0,7,0.00,,,0.00,1016.000000,,2013-04-19 22:02:00,
2013-04-19 15:12:00,85.0,14.0,-100.00,NNE,12,6.0,11.0,7,0.00,,,0.00,1016.000000,,2013-04-19 22:12:00,
2013-04-19 15:42:00,85.0,14.0,-100.00,WSW,258,6.0,14.0,7,0.00,,,0.00,906.000000,,2013-04-19 22:42:00,
2013-04-19 15:52:00,85.0,14.0,-100.00,WSW,258,6.0,14.0,7,0.00,,,0.00,906.000000,,2013-04-19 22:52:00,
2013-04-19 16:02:00,85.0,14.0,-100.00,WSW,258,6.0,14.0,7,0.00,,,0.00,906.000000,,2013-04-19 23:02:00,
2013-04-19 16:11:00,85.0,14.0,-100.00,WSW,258,6.0,14.0,7,0.00,,,0.00,906.000000,,2013-04-19 23:11:00,
2013-04-19 16:42:00,86.0,18.0,-100.00,West,265,5.0,11.0,8,0.00,,,-99.99,728.000000,,2013-04-19 23:42:00,
2013-04-19 16:52:00,86.0,18.0,-100.00,West,265,5.0,11.0,8,0.00,,,-99.99,728.000000,,2013-04-19 23:52:00,
2013-04-19 17:01:00,86.0,18.0,-100.00,West,265,5.0,11.0,8,0.00,,,-99.99,728.000000,,2013-04-20 00:01:00,
2013-04-19 17:11:00,86.0,18.0,-100.00,West,265,5.0,11.0,8,0.00,,,-99.99,728.000000,,2013-04-20 00:11:00,
2013-04-19 17:42:00,85.0,14.0,-100.00,WSW,258,6.0,12.0,7,0.00,,,0.00,516.000000,,2013-04-20 00:42:00,
2013-04-19 17:52:00,85.0,14.0,-100.00,WSW,258,6.0,12.0,7,0.00,,,0.00,516.000000,,2013-04-20 00:52:00,
2013-04-19 18:01:00,85.0,14.0,-100.00,WSW,258,6.0,12.0,7,0.00,,,0.00,516.000000,,2013-04-20 01:01:00,
2013-04-19 18:11:00,85.0,14.0,-100.00,WSW,258,6.0,12.0,7,0.00,,,0.00,516.000000,,2013-04-20 01:11:00,
2013-04-19 18:42:00,83.0,18.0,-100.00,SW,223,8.0,10.0,9,0.00,,,0.00,284.000000,,2013-04-20 01:42:00,
2013-04-19 18:52:00,83.0,18.0,-100.00,SW,223,8.0,10.0,9,0.00,,,0.00,284.000000,,2013-04-20 01:52:00,
2013-04-19 19:01:00,83.0,18.0,-100.00,SW,223,8.0,10.0,9,0.00,,,0.00,284.000000,,2013-04-20 02:01:00,
2013-04-19 19:11:00,83.0,18.0,-100.00,SW,223,8.0,10.0,9,0.00,,,0.00,284.000000,,2013-04-20 02:11:00,
2013-04-19 19:42:00,76.0,33.0,-100.00,WSW,254,4.0,10.0,21,0.00,,,0.00,72.000000,,2013-04-20 02:42:00,
2013-04-19 19:52:00,76.0,33.0,-100.00,WSW,254,4.0,10.0,21,0.00,,,0.00,72.000000,,2013-04-20 02:52:00,
2013-04-19 20:43:00,71.0,35.0,-100.00,WSW,241,3.0,9.0,27,0.00,,,0.00,1.000000,,2013-04-20 03:43:00,
2013-04-19 21:43:00,68.0,36.0,-100.00,SW,220,3.0,5.0,31,0.00,,,0.00,1.000000,,2013-04-20 04:43:00,
2013-04-19 21:52:00,68.0,36.0,-100.00,SW,220,3.0,5.0,31,0.00,,,0.00,1.000000,,2013-04-20 04:52:00,
2013-04-19 22:12:00,68.0,36.0,-100.00,SW,220,3.0,5.0,31,0.00,,,0.00,1.000000,,2013-04-20 05:12:00,
2013-04-19 22:43:00,67.0,35.0,-100.00,SW,235,2.0,5.0,31,0.00,,,0.00,1.000000,,2013-04-20 05:43:00,
2013-04-19 22:52:00,67.0,35.0,-100.00,SW,235,2.0,5.0,31,0.00,,,0.00,1.000000,,2013-04-20 05:52:00,
2013-04-19 23:12:00,67.0,35.0,-100.00,SW,235,2.0,5.0,31,0.00,,,0.00,1.000000,,2013-04-20 06:12:00,
2013-04-19 23:42:00,66.0,34.0,-100.00,West,263,2.0,4.0,30,0.00,,,0.00,1.000000,,2013-04-20 06:42:00,
2013-04-19 23:52:00,66.0,34.0,-100.00,West,263,2.0,4.0,30,0.00,,,0.00,1.000000,,2013-04-20 06:52:00,